createdAt,value
2022-10-24T00:02:29.336Z,97.90
2022-10-24T00:07:25.580Z,96.57
2022-10-24T00:17:23.047Z,98.60
2022-10-24T00:22:19.285Z,99.70
2022-10-24T00:27:15.693Z,101.65
2022-10-24T00:32:11.903Z,102.13
2022-10-24T00:37:08.137Z,103.55
2022-10-24T00:42:04.433Z,101.68
2022-10-24T00:47:00.613Z,104.13
2022-10-24T00:52:00.680Z,103.65
2022-10-24T00:56:59.948Z,105.43
2022-10-24T01:01:56.562Z,102.05
2022-10-24T01:06:55.535Z,105.38
2022-10-24T01:11:51.715Z,106.93
2022-10-24T01:16:50.448Z,102.13
2022-10-24T01:21:53.091Z,103.35
2022-10-24T01:26:56.967Z,102.28
2022-10-24T01:31:55.603Z,101.88
2022-10-24T01:36:57.723Z,103.68
2022-10-24T01:41:55.609Z,103.22
2022-10-24T01:46:55.979Z,101.80
2022-10-24T01:51:54.275Z,101.68
2022-10-24T01:56:51.152Z,100.35
2022-10-24T02:01:47.773Z,101.10
2022-10-24T02:06:45.783Z,101.90
2022-10-24T02:11:42.479Z,100.65
2022-10-24T02:16:38.822Z,103.97
2022-10-24T02:21:43.325Z,101.70
2022-10-24T02:26:46.207Z,105.47
2022-10-24T02:31:44.403Z,104.72
2022-10-24T02:36:41.193Z,100.88
2022-10-24T02:41:39.093Z,99.03
2022-10-24T02:46:35.437Z,100.63
2022-10-24T02:51:36.871Z,102.25
2022-10-24T02:56:33.525Z,99.47
2022-10-24T03:01:29.786Z,101.97
2022-10-24T03:06:26.031Z,106.35
2022-10-24T03:11:22.758Z,105.20
2022-10-24T03:16:18.970Z,102.85
2022-10-24T03:21:15.230Z,101.15
2022-10-24T03:26:11.752Z,103.50
2022-10-24T03:31:08.174Z,101.53
2022-10-24T03:36:05.407Z,104.75
2022-10-24T03:41:01.643Z,106.50
2022-10-24T03:45:57.934Z,104.70
2022-10-24T03:50:54.180Z,106.88
2022-10-24T03:55:50.433Z,102.55
2022-10-24T04:00:47.062Z,98.50
2022-10-24T04:05:43.341Z,102.93
2022-10-24T04:10:39.545Z,101.63
2022-10-24T04:15:35.754Z,101.55
2022-10-24T04:20:32.011Z,106.00
2022-10-24T04:25:28.314Z,103.78
2022-10-24T04:30:25.160Z,104.80
2022-10-24T04:35:21.391Z,108.35
2022-10-24T04:40:17.738Z,111.40
2022-10-24T04:45:13.969Z,111.80
2022-10-24T04:50:10.200Z,110.00
2022-10-24T04:55:06.588Z,109.15
2022-10-24T05:00:03.850Z,107.75
2022-10-24T05:05:00.126Z,110.43
2022-10-24T05:09:56.417Z,109.22
2022-10-24T05:14:52.616Z,105.18
2022-10-24T05:19:48.863Z,98.75
2022-10-24T05:24:45.087Z,97.47
2022-10-24T05:29:41.302Z,96.22
2022-10-24T05:34:37.619Z,91.97
2022-10-24T05:39:33.918Z,94.82
2022-10-24T05:44:30.184Z,98.78
2022-10-24T05:49:26.459Z,87.15
2022-10-24T05:54:22.829Z,90.43
2022-10-24T05:59:19.090Z,90.43
2022-10-24T06:04:15.440Z,91.43
2022-10-24T06:09:11.858Z,92.82
2022-10-24T06:14:08.116Z,91.55
2022-10-24T06:19:04.443Z,85.60
2022-10-24T06:24:00.801Z,92.53
2022-10-24T06:28:57.035Z,88.57
2022-10-24T06:33:55.485Z,93.65
2022-10-24T06:38:51.688Z,95.53
2022-10-24T06:43:49.133Z,94.25
2022-10-24T06:48:45.760Z,100.22
2022-10-24T06:53:42.131Z,103.53
2022-10-24T06:58:38.387Z,100.00
2022-10-24T07:03:34.780Z,104.57
2022-10-24T07:08:30.995Z,104.65
2022-10-24T07:13:27.360Z,105.60
2022-10-24T07:18:23.700Z,111.70
2022-10-24T07:23:19.972Z,110.60
2022-10-24T07:28:16.352Z,109.20
2022-10-24T07:33:12.593Z,117.75
2022-10-24T07:38:08.800Z,119.78
2022-10-24T07:43:05.012Z,111.95
2022-10-24T07:48:01.532Z,117.15
2022-10-24T07:52:57.932Z,117.68
2022-10-24T07:57:54.440Z,119.70
2022-10-24T08:02:51.015Z,112.20
2022-10-24T08:07:56.000Z,114.53
2022-10-24T08:13:02.354Z,121.03
2022-10-24T08:17:58.540Z,114.95
2022-10-24T08:22:54.731Z,112.15
2022-10-24T08:27:50.995Z,109.00
2022-10-24T08:32:47.500Z,108.13
2022-10-24T08:37:44.434Z,103.50
2022-10-24T08:42:40.892Z,108.40
2022-10-24T08:47:51.521Z,92.95
2022-10-24T08:52:51.589Z,88.88
2022-10-24T08:57:52.123Z,85.20
2022-10-24T09:02:52.026Z,74.28
2022-10-24T09:07:51.458Z,65.95
2022-10-24T09:12:47.674Z,70.18
2022-10-24T09:17:45.217Z,65.75
2022-10-24T09:22:43.536Z,56.45
2022-10-24T09:27:40.925Z,49.17
2022-10-24T09:32:37.359Z,49.80
2022-10-24T09:37:44.218Z,40.58
2022-10-24T09:42:49.152Z,39.30
2022-10-24T09:47:45.873Z,34.85
2022-10-24T09:52:47.844Z,27.98
2022-10-24T09:57:44.366Z,20.47
2022-10-24T10:02:55.797Z,19.50
2022-10-24T10:07:52.155Z,19.00
2022-10-24T10:12:55.937Z,17.90
2022-10-24T10:17:54.032Z,16.90
2022-10-24T10:22:50.230Z,16.83
2022-10-24T10:27:50.656Z,17.85
2022-10-24T10:32:53.025Z,14.95
2022-10-24T10:37:57.300Z,15.70
2022-10-24T10:42:53.572Z,13.43
2022-10-24T10:48:07.913Z,13.18
2022-10-24T10:53:22.640Z,12.75
2022-10-24T10:58:18.847Z,12.40
2022-10-24T11:03:41.585Z,10.68
2022-10-24T11:08:59.022Z,11.55
2022-10-24T11:14:20.719Z,9.65
2022-10-24T11:19:22.827Z,10.70
2022-10-24T11:24:21.907Z,10.02
2022-10-24T11:29:29.864Z,9.73
2022-10-24T11:34:35.284Z,9.40
2022-10-24T11:39:44.287Z,10.65
2022-10-24T11:44:45.591Z,9.98
2022-10-24T11:49:45.373Z,10.00
2022-10-24T11:54:44.305Z,10.20
2022-10-24T11:59:43.195Z,10.23
2022-10-24T12:04:48.846Z,9.90
2022-10-24T12:09:47.924Z,10.05
2022-10-24T12:14:44.078Z,9.55
2022-10-24T12:19:41.619Z,9.57
2022-10-24T12:24:40.861Z,10.25
2022-10-24T12:29:37.164Z,9.48
2022-10-24T12:34:46.106Z,9.98
2022-10-24T12:39:48.824Z,9.40
2022-10-24T12:44:45.705Z,9.68
2022-10-24T12:49:41.944Z,9.68
2022-10-24T12:54:39.953Z,10.40
2022-10-24T12:59:46.976Z,10.90
2022-10-24T13:04:55.418Z,10.13
2022-10-24T13:10:00.605Z,11.55
2022-10-24T13:15:15.341Z,9.88
2022-10-24T13:20:33.629Z,9.25
2022-10-24T13:25:33.786Z,9.77
2022-10-24T13:30:30.037Z,9.93
2022-10-24T13:35:26.398Z,9.80
2022-10-24T13:40:35.479Z,9.18
2022-10-24T13:45:31.710Z,9.57
2022-10-24T13:50:32.076Z,9.60
2022-10-24T13:55:31.402Z,9.70
2022-10-24T14:00:29.254Z,9.35
2022-10-24T14:05:29.786Z,8.88
2022-10-24T14:10:26.350Z,9.32
2022-10-24T14:15:24.375Z,9.27
2022-10-24T14:20:28.634Z,9.20
2022-10-24T14:25:27.789Z,10.50
2022-10-24T14:30:25.139Z,9.95
2022-10-24T14:35:21.389Z,9.50
2022-10-24T14:40:17.983Z,9.95
2022-10-24T14:45:24.956Z,10.18
2022-10-24T14:50:43.030Z,9.73
2022-10-24T14:55:39.640Z,10.70
2022-10-24T15:00:37.670Z,9.80
2022-10-24T15:05:34.531Z,10.27
2022-10-24T15:10:40.771Z,10.20
2022-10-24T15:15:43.455Z,10.00
2022-10-24T15:25:40.563Z,10.77
2022-10-24T15:30:41.139Z,10.70
2022-10-24T15:35:40.271Z,11.27
2022-10-24T15:40:36.494Z,11.70
2022-10-24T15:45:32.836Z,12.07
2022-10-24T15:50:29.113Z,11.70
2022-10-24T15:55:26.097Z,12.00
2022-10-24T16:00:22.676Z,12.88
2022-10-24T16:05:20.428Z,13.43
2022-10-24T16:10:19.709Z,12.65
2022-10-24T16:15:25.663Z,13.00
2022-10-24T16:20:21.952Z,13.70
2022-10-24T16:25:19.855Z,13.60
2022-10-24T16:30:17.432Z,14.65
2022-10-24T16:35:18.594Z,14.50
2022-10-24T16:40:14.866Z,15.35
2022-10-24T16:45:11.537Z,16.10
2022-10-24T16:50:08.115Z,17.55
2022-10-24T16:55:04.462Z,16.45
2022-10-24T17:00:00.649Z,17.85
2022-10-24T17:04:56.879Z,17.73
2022-10-24T17:09:53.179Z,17.23
2022-10-24T17:14:49.451Z,17.00
2022-10-24T17:19:48.168Z,17.75
2022-10-24T17:24:44.667Z,18.08
2022-10-24T17:29:41.620Z,17.90
2022-10-24T17:34:38.271Z,18.58
2022-10-24T17:39:43.197Z,17.90
2022-10-24T17:44:42.411Z,17.48
2022-10-24T17:49:38.697Z,17.27
2022-10-24T17:54:35.838Z,18.10
2022-10-24T17:59:32.195Z,18.67
2022-10-24T18:04:28.571Z,16.98
2022-10-24T18:09:27.213Z,16.17
2022-10-24T18:14:23.440Z,16.55
2022-10-24T18:19:19.983Z,17.30
2022-10-24T18:24:16.168Z,17.33
2022-10-24T18:29:12.490Z,18.80
2022-10-24T18:34:08.942Z,17.10
2022-10-24T18:39:05.770Z,15.98
2022-10-24T18:44:12.107Z,16.55
2022-10-24T18:49:09.081Z,16.38
2022-10-24T18:54:07.060Z,17.92
2022-10-24T18:59:03.631Z,17.80
2022-10-24T19:04:03.192Z,18.02
2022-10-24T19:08:59.495Z,18.75
2022-10-24T19:13:55.898Z,19.55
2022-10-24T19:18:55.641Z,21.67
2022-10-24T19:23:52.411Z,21.73
2022-10-24T19:28:48.685Z,22.05
2022-10-24T19:33:44.949Z,24.48
2022-10-24T19:38:41.171Z,24.15
2022-10-24T19:43:37.416Z,23.25
2022-10-24T19:48:34.872Z,26.58
2022-10-24T19:53:35.132Z,26.67
2022-10-24T19:58:31.606Z,29.77
2022-10-24T20:03:27.826Z,30.63
2022-10-24T20:08:24.073Z,32.67
2022-10-24T20:13:20.374Z,33.75
2022-10-24T20:18:16.648Z,32.38
2022-10-24T20:23:12.993Z,34.70
2022-10-24T20:28:09.232Z,36.67
2022-10-24T20:33:05.487Z,38.42
2022-10-24T20:38:01.898Z,38.15
2022-10-24T20:42:58.311Z,42.60
2022-10-24T20:47:54.544Z,45.42
2022-10-24T20:52:51.387Z,48.30
2022-10-24T20:57:47.568Z,50.45
2022-10-24T21:02:44.082Z,52.80
2022-10-24T21:07:40.653Z,55.97
2022-10-24T21:12:36.853Z,61.15
2022-10-24T21:17:33.071Z,68.57
2022-10-24T21:22:29.300Z,68.13
2022-10-24T21:27:25.514Z,76.65
2022-10-24T21:32:21.790Z,91.20
2022-10-24T21:37:17.994Z,94.03
2022-10-24T21:42:14.348Z,95.45
2022-10-24T21:47:10.626Z,99.80
2022-10-24T21:52:06.881Z,98.13
2022-10-24T21:57:03.117Z,106.82
2022-10-24T22:01:59.587Z,102.78
2022-10-24T22:06:55.895Z,118.18
2022-10-24T22:11:54.593Z,110.57
2022-10-24T22:16:50.886Z,102.18
2022-10-24T22:21:48.272Z,104.72
2022-10-24T22:26:44.857Z,104.22
2022-10-24T22:31:41.775Z,105.53
2022-10-24T22:36:56.634Z,106.60
2022-10-24T22:41:53.039Z,104.60
2022-10-24T22:46:49.314Z,104.32
2022-10-24T22:51:45.709Z,101.13
2022-10-24T22:56:42.153Z,105.30
2022-10-24T23:01:56.943Z,104.90
2022-10-24T23:06:58.081Z,110.03
2022-10-24T23:11:54.731Z,104.68
2022-10-24T23:16:55.307Z,105.50
2022-10-24T23:21:54.694Z,114.53
2022-10-24T23:27:09.531Z,106.80
2022-10-24T23:32:06.030Z,107.22
2022-10-24T23:37:04.175Z,111.90
2022-10-24T23:42:01.275Z,114.15
2022-10-24T23:47:06.068Z,113.90
2022-10-24T23:52:12.559Z,110.18
2022-10-24T23:57:16.544Z,109.22
